sensor_id;sensor_type;location;lat;lon;timestamp;pressure;altitude;pressure_sealevel;temperature
22322;BMP180;11328;53.928;18.522;2024-02-28T00:00:32;100355.00;;;8.00
22322;BMP180;11328;53.928;18.522;2024-02-28T00:02:59;100356.00;;;8.00
22322;BMP180;11328;53.928;18.522;2024-02-28T00:05:26;100354.00;;;8.00
22322;BMP180;11328;53.928;18.522;2024-02-28T00:07:53;100352.00;;;8.10
22322;BMP180;11328;53.928;18.522;2024-02-28T00:10:20;100356.00;;;7.90
22322;BMP180;11328;53.928;18.522;2024-02-28T00:12:48;100351.00;;;7.80
22322;BMP180;11328;53.928;18.522;2024-02-28T00:15:15;100353.00;;;7.90
22322;BMP180;11328;53.928;18.522;2024-02-28T00:17:42;100363.00;;;8.00
22322;BMP180;11328;53.928;18.522;2024-02-28T00:20:10;100372.00;;;8.10
22322;BMP180;11328;53.928;18.522;2024-02-28T00:22:38;100378.00;;;8.20
22322;BMP180;11328;53.928;18.522;2024-02-28T00:25:06;100382.00;;;8.20
22322;BMP180;11328;53.928;18.522;2024-02-28T00:27:34;100381.00;;;8.10
22322;BMP180;11328;53.928;18.522;2024-02-28T00:30:03;100385.00;;;8.00
22322;BMP180;11328;53.928;18.522;2024-02-28T00:32:33;100380.00;;;8.10
22322;BMP180;11328;53.928;18.522;2024-02-28T00:35:00;100370.00;;;8.10
22322;BMP180;11328;53.928;18.522;2024-02-28T00:37:27;100374.00;;;8.00
22322;BMP180;11328;53.928;18.522;2024-02-28T00:39:55;100379.00;;;8.10
22322;BMP180;11328;53.928;18.522;2024-02-28T00:42:22;100380.00;;;8.20
22322;BMP180;11328;53.928;18.522;2024-02-28T00:44:49;100377.00;;;8.20
22322;BMP180;11328;53.928;18.522;2024-02-28T00:47:16;100372.00;;;8.20
22322;BMP180;11328;53.928;18.522;2024-02-28T00:49:43;100371.00;;;8.20
22322;BMP180;11328;53.928;18.522;2024-02-28T00:52:10;100373.00;;;8.20
22322;BMP180;11328;53.928;18.522;2024-02-28T00:54:37;100377.00;;;8.10
22322;BMP180;11328;53.928;18.522;2024-02-28T00:57:04;100373.00;;;8.20
22322;BMP180;11328;53.928;18.522;2024-02-28T00:59:31;100377.00;;;7.90
22322;BMP180;11328;53.928;18.522;2024-02-28T01:01:58;100382.00;;;8.00
22322;BMP180;11328;53.928;18.522;2024-02-28T01:04:26;100343.00;;;7.90
22322;BMP180;11328;53.928;18.522;2024-02-28T01:06:53;100378.00;;;7.80
22322;BMP180;11328;53.928;18.522;2024-02-28T01:09:21;100376.00;;;7.80
22322;BMP180;11328;53.928;18.522;2024-02-28T01:11:48;100374.00;;;7.70
22322;BMP180;11328;53.928;18.522;2024-02-28T01:14:15;100362.00;;;7.60
22322;BMP180;11328;53.928;18.522;2024-02-28T01:16:42;100361.00;;;7.70
22322;BMP180;11328;53.928;18.522;2024-02-28T01:19:09;100365.00;;;7.70
22322;BMP180;11328;53.928;18.522;2024-02-28T01:21:36;100363.00;;;7.70
22322;BMP180;11328;53.928;18.522;2024-02-28T01:24:05;100358.00;;;7.60
22322;BMP180;11328;53.928;18.522;2024-02-28T01:26:32;100363.00;;;7.70
22322;BMP180;11328;53.928;18.522;2024-02-28T01:28:59;100365.00;;;7.70
22322;BMP180;11328;53.928;18.522;2024-02-28T01:31:26;100353.00;;;7.60
22322;BMP180;11328;53.928;18.522;2024-02-28T01:33:53;100349.00;;;7.70
22322;BMP180;11328;53.928;18.522;2024-02-28T01:36:22;100340.00;;;7.70
22322;BMP180;11328;53.928;18.522;2024-02-28T01:38:49;100347.00;;;7.60
22322;BMP180;11328;53.928;18.522;2024-02-28T01:41:16;100340.00;;;7.60
22322;BMP180;11328;53.928;18.522;2024-02-28T01:43:43;100353.00;;;7.80
22322;BMP180;11328;53.928;18.522;2024-02-28T01:46:26;100352.00;;;7.70
22322;BMP180;11328;53.928;18.522;2024-02-28T01:48:54;100350.00;;;7.70
22322;BMP180;11328;53.928;18.522;2024-02-28T01:51:26;100345.00;;;7.50
22322;BMP180;11328;53.928;18.522;2024-02-28T01:53:56;100343.00;;;7.50
22322;BMP180;11328;53.928;18.522;2024-02-28T01:56:25;100307.00;;;7.40
22322;BMP180;11328;53.928;18.522;2024-02-28T01:58:55;100348.00;;;7.50
22322;BMP180;11328;53.928;18.522;2024-02-28T02:01:23;100326.00;;;7.60
22322;BMP180;11328;53.928;18.522;2024-02-28T02:03:50;100334.00;;;7.60
22322;BMP180;11328;53.928;18.522;2024-02-28T02:06:17;100324.00;;;7.50
22322;BMP180;11328;53.928;18.522;2024-02-28T02:08:44;100334.00;;;7.60
22322;BMP180;11328;53.928;18.522;2024-02-28T02:11:17;100350.00;;;7.70
22322;BMP180;11328;53.928;18.522;2024-02-28T02:13:53;100360.00;;;7.60
22322;BMP180;11328;53.928;18.522;2024-02-28T02:16:21;100353.00;;;7.70
22322;BMP180;11328;53.928;18.522;2024-02-28T02:18:57;100350.00;;;7.60
22322;BMP180;11328;53.928;18.522;2024-02-28T02:21:31;100340.00;;;7.70
22322;BMP180;11328;53.928;18.522;2024-02-28T02:24:01;100349.00;;;7.70
22322;BMP180;11328;53.928;18.522;2024-02-28T02:26:28;100335.00;;;7.80
22322;BMP180;11328;53.928;18.522;2024-02-28T02:28:55;100324.00;;;7.70
22322;BMP180;11328;53.928;18.522;2024-02-28T02:31:22;100304.00;;;7.80
22322;BMP180;11328;53.928;18.522;2024-02-28T02:33:49;100323.00;;;7.80
22322;BMP180;11328;53.928;18.522;2024-02-28T02:36:18;100317.00;;;7.80
22322;BMP180;11328;53.928;18.522;2024-02-28T02:38:47;100320.00;;;7.80
22322;BMP180;11328;53.928;18.522;2024-02-28T02:41:14;100333.00;;;7.70
22322;BMP180;11328;53.928;18.522;2024-02-28T02:43:40;100332.00;;;7.80
22322;BMP180;11328;53.928;18.522;2024-02-28T02:46:07;100320.00;;;7.70
22322;BMP180;11328;53.928;18.522;2024-02-28T02:48:34;100336.00;;;7.70
22322;BMP180;11328;53.928;18.522;2024-02-28T02:51:02;100335.00;;;7.70
22322;BMP180;11328;53.928;18.522;2024-02-28T02:53:29;100345.00;;;7.70
22322;BMP180;11328;53.928;18.522;2024-02-28T02:55:56;100347.00;;;7.70
22322;BMP180;11328;53.928;18.522;2024-02-28T02:58:23;100353.00;;;7.70
22322;BMP180;11328;53.928;18.522;2024-02-28T03:00:50;100341.00;;;7.70
22322;BMP180;11328;53.928;18.522;2024-02-28T03:03:17;100333.00;;;7.80
22322;BMP180;11328;53.928;18.522;2024-02-28T03:05:44;100326.00;;;7.80
22322;BMP180;11328;53.928;18.522;2024-02-28T03:08:12;100333.00;;;7.60
22322;BMP180;11328;53.928;18.522;2024-02-28T03:10:39;100341.00;;;7.50
22322;BMP180;11328;53.928;18.522;2024-02-28T03:13:06;100345.00;;;7.60
22322;BMP180;11328;53.928;18.522;2024-02-28T03:15:34;100348.00;;;7.50
22322;BMP180;11328;53.928;18.522;2024-02-28T03:18:01;100350.00;;;7.60
22322;BMP180;11328;53.928;18.522;2024-02-28T03:20:28;100348.00;;;7.70
22322;BMP180;11328;53.928;18.522;2024-02-28T03:22:55;100342.00;;;7.60
22322;BMP180;11328;53.928;18.522;2024-02-28T03:25:22;100350.00;;;7.60
22322;BMP180;11328;53.928;18.522;2024-02-28T03:27:49;100338.00;;;7.60
22322;BMP180;11328;53.928;18.522;2024-02-28T03:30:17;100339.00;;;7.70
22322;BMP180;11328;53.928;18.522;2024-02-28T03:32:44;100334.00;;;7.70
22322;BMP180;11328;53.928;18.522;2024-02-28T03:35:11;100336.00;;;7.60
22322;BMP180;11328;53.928;18.522;2024-02-28T03:37:38;100342.00;;;7.70
22322;BMP180;11328;53.928;18.522;2024-02-28T03:40:06;100335.00;;;7.70
22322;BMP180;11328;53.928;18.522;2024-02-28T03:42:33;100335.00;;;7.70
22322;BMP180;11328;53.928;18.522;2024-02-28T03:45:00;100323.00;;;7.70
22322;BMP180;11328;53.928;18.522;2024-02-28T03:47:27;100324.00;;;7.80
22322;BMP180;11328;53.928;18.522;2024-02-28T03:49:54;100325.00;;;7.70
22322;BMP180;11328;53.928;18.522;2024-02-28T03:52:24;100324.00;;;7.70
22322;BMP180;11328;53.928;18.522;2024-02-28T03:54:51;100324.00;;;7.70
22322;BMP180;11328;53.928;18.522;2024-02-28T03:57:18;100330.00;;;7.60
22322;BMP180;11328;53.928;18.522;2024-02-28T03:59:45;100351.00;;;7.50
22322;BMP180;11328;53.928;18.522;2024-02-28T04:02:12;100342.00;;;7.40
22322;BMP180;11328;53.928;18.522;2024-02-28T04:04:39;100345.00;;;7.30
22322;BMP180;11328;53.928;18.522;2024-02-28T04:07:06;100346.00;;;7.40
22322;BMP180;11328;53.928;18.522;2024-02-28T04:09:33;100342.00;;;7.60
22322;BMP180;11328;53.928;18.522;2024-02-28T04:12:00;100356.00;;;7.70
22322;BMP180;11328;53.928;18.522;2024-02-28T04:14:27;100354.00;;;7.70
22322;BMP180;11328;53.928;18.522;2024-02-28T04:16:54;100354.00;;;7.60
22322;BMP180;11328;53.928;18.522;2024-02-28T04:19:21;100355.00;;;7.70
22322;BMP180;11328;53.928;18.522;2024-02-28T04:21:48;100354.00;;;7.70
22322;BMP180;11328;53.928;18.522;2024-02-28T04:24:15;100356.00;;;7.80
22322;BMP180;11328;53.928;18.522;2024-02-28T04:26:43;100359.00;;;7.90
22322;BMP180;11328;53.928;18.522;2024-02-28T04:29:10;100351.00;;;7.90
22322;BMP180;11328;53.928;18.522;2024-02-28T04:31:41;100350.00;;;7.90
22322;BMP180;11328;53.928;18.522;2024-02-28T04:34:08;100351.00;;;7.90
22322;BMP180;11328;53.928;18.522;2024-02-28T04:36:35;100343.00;;;8.00
22322;BMP180;11328;53.928;18.522;2024-02-28T04:39:02;100343.00;;;8.00
22322;BMP180;11328;53.928;18.522;2024-02-28T04:41:31;100345.00;;;7.90
22322;BMP180;11328;53.928;18.522;2024-02-28T04:43:58;100340.00;;;7.90
22322;BMP180;11328;53.928;18.522;2024-02-28T04:46:25;100343.00;;;7.80
22322;BMP180;11328;53.928;18.522;2024-02-28T04:48:52;100344.00;;;7.70
22322;BMP180;11328;53.928;18.522;2024-02-28T04:51:19;100341.00;;;7.70
22322;BMP180;11328;53.928;18.522;2024-02-28T04:53:46;100336.00;;;7.70
22322;BMP180;11328;53.928;18.522;2024-02-28T04:56:13;100339.00;;;7.50
22322;BMP180;11328;53.928;18.522;2024-02-28T04:58:40;100342.00;;;7.40
22322;BMP180;11328;53.928;18.522;2024-02-28T05:01:07;100351.00;;;7.40
22322;BMP180;11328;53.928;18.522;2024-02-28T05:03:34;100340.00;;;7.40
22322;BMP180;11328;53.928;18.522;2024-02-28T05:06:01;100349.00;;;7.40
22322;BMP180;11328;53.928;18.522;2024-02-28T05:08:29;100355.00;;;7.20
22322;BMP180;11328;53.928;18.522;2024-02-28T05:10:56;100352.00;;;7.00
22322;BMP180;11328;53.928;18.522;2024-02-28T05:13:23;100349.00;;;7.00
22322;BMP180;11328;53.928;18.522;2024-02-28T05:15:51;100359.00;;;7.20
22322;BMP180;11328;53.928;18.522;2024-02-28T05:18:19;100369.00;;;7.20
22322;BMP180;11328;53.928;18.522;2024-02-28T05:20:46;100364.00;;;7.30
22322;BMP180;11328;53.928;18.522;2024-02-28T05:23:13;100366.00;;;7.40
22322;BMP180;11328;53.928;18.522;2024-02-28T05:25:40;100362.00;;;7.30
22322;BMP180;11328;53.928;18.522;2024-02-28T05:28:07;100337.00;;;7.30
22322;BMP180;11328;53.928;18.522;2024-02-28T05:30:34;100381.00;;;7.20
22322;BMP180;11328;53.928;18.522;2024-02-28T05:33:02;100377.00;;;7.30
22322;BMP180;11328;53.928;18.522;2024-02-28T05:35:29;100369.00;;;7.20
22322;BMP180;11328;53.928;18.522;2024-02-28T05:37:56;100364.00;;;7.30
22322;BMP180;11328;53.928;18.522;2024-02-28T05:40:23;100364.00;;;7.30
22322;BMP180;11328;53.928;18.522;2024-02-28T05:42:51;100371.00;;;7.40
22322;BMP180;11328;53.928;18.522;2024-02-28T05:45:18;100371.00;;;7.40
22322;BMP180;11328;53.928;18.522;2024-02-28T05:47:45;100369.00;;;7.30
22322;BMP180;11328;53.928;18.522;2024-02-28T05:50:12;100360.00;;;7.40
22322;BMP180;11328;53.928;18.522;2024-02-28T05:52:43;100360.00;;;7.50
22322;BMP180;11328;53.928;18.522;2024-02-28T05:55:10;100265.00;;;7.40
22322;BMP180;11328;53.928;18.522;2024-02-28T05:57:38;100371.00;;;7.20
22322;BMP180;11328;53.928;18.522;2024-02-28T06:00:06;100372.00;;;7.20
22322;BMP180;11328;53.928;18.522;2024-02-28T06:02:37;100360.00;;;7.30
22322;BMP180;11328;53.928;18.522;2024-02-28T06:05:05;100384.00;;;7.40
22322;BMP180;11328;53.928;18.522;2024-02-28T06:07:32;100374.00;;;7.40
22322;BMP180;11328;53.928;18.522;2024-02-28T06:10:00;100372.00;;;7.30
22322;BMP180;11328;53.928;18.522;2024-02-28T06:12:27;100375.00;;;7.30
22322;BMP180;11328;53.928;18.522;2024-02-28T06:14:54;100372.00;;;7.40
22322;BMP180;11328;53.928;18.522;2024-02-28T06:17:21;100383.00;;;7.40
22322;BMP180;11328;53.928;18.522;2024-02-28T06:19:49;100387.00;;;7.20
22322;BMP180;11328;53.928;18.522;2024-02-28T06:22:15;100388.00;;;7.10
22322;BMP180;11328;53.928;18.522;2024-02-28T06:24:46;100389.00;;;7.10
22322;BMP180;11328;53.928;18.522;2024-02-28T06:27:13;100387.00;;;7.10
22322;BMP180;11328;53.928;18.522;2024-02-28T06:29:40;100391.00;;;7.30
22322;BMP180;11328;53.928;18.522;2024-02-28T06:32:07;100370.00;;;7.20
22322;BMP180;11328;53.928;18.522;2024-02-28T06:34:35;100387.00;;;7.40
22322;BMP180;11328;53.928;18.522;2024-02-28T06:37:01;100395.00;;;7.20
22322;BMP180;11328;53.928;18.522;2024-02-28T06:39:29;100381.00;;;7.20
22322;BMP180;11328;53.928;18.522;2024-02-28T06:41:56;100388.00;;;7.20
22322;BMP180;11328;53.928;18.522;2024-02-28T06:44:23;100387.00;;;7.30
22322;BMP180;11328;53.928;18.522;2024-02-28T06:46:50;100389.00;;;7.30
22322;BMP180;11328;53.928;18.522;2024-02-28T06:49:17;100399.00;;;7.30
22322;BMP180;11328;53.928;18.522;2024-02-28T06:51:44;100399.00;;;7.30
22322;BMP180;11328;53.928;18.522;2024-02-28T06:54:12;100407.00;;;7.20
22322;BMP180;11328;53.928;18.522;2024-02-28T06:56:39;100400.00;;;7.40
22322;BMP180;11328;53.928;18.522;2024-02-28T06:59:06;100407.00;;;7.40
22322;BMP180;11328;53.928;18.522;2024-02-28T07:01:33;100416.00;;;7.30
22322;BMP180;11328;53.928;18.522;2024-02-28T07:04:01;100406.00;;;7.10
22322;BMP180;11328;53.928;18.522;2024-02-28T07:06:28;100414.00;;;7.30
22322;BMP180;11328;53.928;18.522;2024-02-28T07:08:55;100423.00;;;7.30
22322;BMP180;11328;53.928;18.522;2024-02-28T07:11:22;100417.00;;;7.30
22322;BMP180;11328;53.928;18.522;2024-02-28T07:13:49;100418.00;;;7.40
22322;BMP180;11328;53.928;18.522;2024-02-28T07:16:16;100418.00;;;7.40
22322;BMP180;11328;53.928;18.522;2024-02-28T07:18:43;100411.00;;;7.40
22322;BMP180;11328;53.928;18.522;2024-02-28T07:21:10;100417.00;;;7.60
22322;BMP180;11328;53.928;18.522;2024-02-28T07:23:40;100401.00;;;7.70
22322;BMP180;11328;53.928;18.522;2024-02-28T07:26:07;100413.00;;;7.80
22322;BMP180;11328;53.928;18.522;2024-02-28T07:28:45;100422.00;;;7.60
22322;BMP180;11328;53.928;18.522;2024-02-28T07:31:17;100425.00;;;7.70
22322;BMP180;11328;53.928;18.522;2024-02-28T07:33:44;100427.00;;;7.70
22322;BMP180;11328;53.928;18.522;2024-02-28T07:36:12;100420.00;;;7.90
22322;BMP180;11328;53.928;18.522;2024-02-28T07:38:41;100429.00;;;8.00
22322;BMP180;11328;53.928;18.522;2024-02-28T07:41:09;100426.00;;;8.00
22322;BMP180;11328;53.928;18.522;2024-02-28T07:43:36;100425.00;;;8.00
22322;BMP180;11328;53.928;18.522;2024-02-28T07:46:10;100422.00;;;8.10
22322;BMP180;11328;53.928;18.522;2024-02-28T07:48:38;100392.00;;;8.20
22322;BMP180;11328;53.928;18.522;2024-02-28T07:51:09;100425.00;;;8.30
22322;BMP180;11328;53.928;18.522;2024-02-28T07:53:36;100428.00;;;8.20
22322;BMP180;11328;53.928;18.522;2024-02-28T07:56:03;100425.00;;;8.30
22322;BMP180;11328;53.928;18.522;2024-02-28T07:58:30;100439.00;;;8.40
22322;BMP180;11328;53.928;18.522;2024-02-28T08:00:57;100437.00;;;8.40
22322;BMP180;11328;53.928;18.522;2024-02-28T08:03:25;100443.00;;;8.30
22322;BMP180;11328;53.928;18.522;2024-02-28T08:05:52;100439.00;;;8.00
22322;BMP180;11328;53.928;18.522;2024-02-28T08:08:19;100436.00;;;8.00
22322;BMP180;11328;53.928;18.522;2024-02-28T08:10:46;100441.00;;;8.10
22322;BMP180;11328;53.928;18.522;2024-02-28T08:13:15;100444.00;;;8.30
22322;BMP180;11328;53.928;18.522;2024-02-28T08:15:43;100416.00;;;8.40
22322;BMP180;11328;53.928;18.522;2024-02-28T08:18:10;100448.00;;;8.40
22322;BMP180;11328;53.928;18.522;2024-02-28T08:20:40;100457.00;;;8.40
22322;BMP180;11328;53.928;18.522;2024-02-28T08:23:07;100447.00;;;8.30
22322;BMP180;11328;53.928;18.522;2024-02-28T08:25:34;100454.00;;;8.10
22322;BMP180;11328;53.928;18.522;2024-02-28T08:28:01;100452.00;;;8.20
22322;BMP180;11328;53.928;18.522;2024-02-28T08:30:30;100452.00;;;8.20
22322;BMP180;11328;53.928;18.522;2024-02-28T08:32:58;100453.00;;;8.20
22322;BMP180;11328;53.928;18.522;2024-02-28T08:35:25;100452.00;;;8.10
22322;BMP180;11328;53.928;18.522;2024-02-28T08:37:52;100440.00;;;8.10
22322;BMP180;11328;53.928;18.522;2024-02-28T08:40:20;100449.00;;;8.00
22322;BMP180;11328;53.928;18.522;2024-02-28T08:42:47;100455.00;;;8.10
22322;BMP180;11328;53.928;18.522;2024-02-28T08:45:15;100453.00;;;8.10
22322;BMP180;11328;53.928;18.522;2024-02-28T08:47:42;100455.00;;;8.20
22322;BMP180;11328;53.928;18.522;2024-02-28T08:50:09;100451.00;;;8.30
22322;BMP180;11328;53.928;18.522;2024-02-28T08:52:36;100452.00;;;8.30
22322;BMP180;11328;53.928;18.522;2024-02-28T08:55:04;100427.00;;;8.30
22322;BMP180;11328;53.928;18.522;2024-02-28T08:57:31;100448.00;;;8.30
22322;BMP180;11328;53.928;18.522;2024-02-28T08:59:58;100454.00;;;8.50
22322;BMP180;11328;53.928;18.522;2024-02-28T09:02:26;100455.00;;;8.50
22322;BMP180;11328;53.928;18.522;2024-02-28T09:04:53;100451.00;;;8.60
22322;BMP180;11328;53.928;18.522;2024-02-28T09:07:23;100457.00;;;8.40
22322;BMP180;11328;53.928;18.522;2024-02-28T09:09:50;100465.00;;;8.20
22322;BMP180;11328;53.928;18.522;2024-02-28T09:12:17;100469.00;;;8.30
22322;BMP180;11328;53.928;18.522;2024-02-28T09:14:45;100466.00;;;8.30
22322;BMP180;11328;53.928;18.522;2024-02-28T09:17:12;100467.00;;;8.30
22322;BMP180;11328;53.928;18.522;2024-02-28T09:19:39;100473.00;;;8.40
22322;BMP180;11328;53.928;18.522;2024-02-28T09:22:06;100472.00;;;8.30
22322;BMP180;11328;53.928;18.522;2024-02-28T09:24:33;100476.00;;;8.40
22322;BMP180;11328;53.928;18.522;2024-02-28T09:27:03;100477.00;;;8.40
22322;BMP180;11328;53.928;18.522;2024-02-28T09:29:30;100476.00;;;8.40
22322;BMP180;11328;53.928;18.522;2024-02-28T09:31:57;100449.00;;;8.30
22322;BMP180;11328;53.928;18.522;2024-02-28T09:34:24;100471.00;;;8.30
22322;BMP180;11328;53.928;18.522;2024-02-28T09:36:52;100477.00;;;8.60
22322;BMP180;11328;53.928;18.522;2024-02-28T09:39:19;100480.00;;;8.60
22322;BMP180;11328;53.928;18.522;2024-02-28T09:41:49;100482.00;;;8.30
22322;BMP180;11328;53.928;18.522;2024-02-28T09:44:17;100479.00;;;8.20
22322;BMP180;11328;53.928;18.522;2024-02-28T09:46:45;100476.00;;;8.30
22322;BMP180;11328;53.928;18.522;2024-02-28T09:49:15;100485.00;;;8.40
22322;BMP180;11328;53.928;18.522;2024-02-28T09:51:44;100460.00;;;8.40
22322;BMP180;11328;53.928;18.522;2024-02-28T09:54:12;100489.00;;;8.40
22322;BMP180;11328;53.928;18.522;2024-02-28T09:56:40;100487.00;;;8.40
22322;BMP180;11328;53.928;18.522;2024-02-28T09:59:08;100491.00;;;8.60
22322;BMP180;11328;53.928;18.522;2024-02-28T10:01:42;100482.00;;;8.60
22322;BMP180;11328;53.928;18.522;2024-02-28T10:04:12;100483.00;;;8.60
22322;BMP180;11328;53.928;18.522;2024-02-28T10:06:40;100446.00;;;8.70
22322;BMP180;11328;53.928;18.522;2024-02-28T10:09:08;100486.00;;;8.70
22322;BMP180;11328;53.928;18.522;2024-02-28T10:11:37;100494.00;;;8.80
22322;BMP180;11328;53.928;18.522;2024-02-28T10:14:04;100491.00;;;8.70
22322;BMP180;11328;53.928;18.522;2024-02-28T10:16:32;100495.00;;;8.70
22322;BMP180;11328;53.928;18.522;2024-02-28T10:18:59;100494.00;;;8.80
22322;BMP180;11328;53.928;18.522;2024-02-28T10:21:26;100503.00;;;8.90
22322;BMP180;11328;53.928;18.522;2024-02-28T10:23:53;100501.00;;;8.90
22322;BMP180;11328;53.928;18.522;2024-02-28T10:26:20;100506.00;;;9.00
22322;BMP180;11328;53.928;18.522;2024-02-28T10:28:47;100501.00;;;9.00
22322;BMP180;11328;53.928;18.522;2024-02-28T10:31:14;100513.00;;;8.90
22322;BMP180;11328;53.928;18.522;2024-02-28T10:33:42;100516.00;;;8.80
22322;BMP180;11328;53.928;18.522;2024-02-28T10:36:10;100521.00;;;8.70
22322;BMP180;11328;53.928;18.522;2024-02-28T10:38:38;100523.00;;;8.60
22322;BMP180;11328;53.928;18.522;2024-02-28T10:41:06;100515.00;;;8.50
22322;BMP180;11328;53.928;18.522;2024-02-28T10:43:39;100517.00;;;8.30
22322;BMP180;11328;53.928;18.522;2024-02-28T10:46:08;100523.00;;;8.50
22322;BMP180;11328;53.928;18.522;2024-02-28T10:48:56;100528.00;;;8.80
22322;BMP180;11328;53.928;18.522;2024-02-28T10:51:25;100527.00;;;9.00
22322;BMP180;11328;53.928;18.522;2024-02-28T10:54:13;100525.00;;;8.90
22322;BMP180;11328;53.928;18.522;2024-02-28T10:56:43;100532.00;;;8.90
22322;BMP180;11328;53.928;18.522;2024-02-28T10:59:11;100521.00;;;9.00
22322;BMP180;11328;53.928;18.522;2024-02-28T11:01:43;100526.00;;;9.10
22322;BMP180;11328;53.928;18.522;2024-02-28T11:04:13;100525.00;;;9.10
22322;BMP180;11328;53.928;18.522;2024-02-28T11:09:25;100528.00;;;9.30
22322;BMP180;11328;53.928;18.522;2024-02-28T11:11:55;100495.00;;;9.30
22322;BMP180;11328;53.928;18.522;2024-02-28T11:14:23;100529.00;;;9.40
22322;BMP180;11328;53.928;18.522;2024-02-28T11:17:05;100529.00;;;9.20
22322;BMP180;11328;53.928;18.522;2024-02-28T11:19:33;100531.00;;;9.30
22322;BMP180;11328;53.928;18.522;2024-02-28T11:22:05;100534.00;;;9.20
22322;BMP180;11328;53.928;18.522;2024-02-28T11:24:34;100538.00;;;9.40
22322;BMP180;11328;53.928;18.522;2024-02-28T11:27:03;100543.00;;;9.40
22322;BMP180;11328;53.928;18.522;2024-02-28T11:29:30;100538.00;;;9.40
22322;BMP180;11328;53.928;18.522;2024-02-28T11:31:58;100540.00;;;9.40
22322;BMP180;11328;53.928;18.522;2024-02-28T11:34:25;100537.00;;;9.20
22322;BMP180;11328;53.928;18.522;2024-02-28T11:36:53;100545.00;;;9.30
22322;BMP180;11328;53.928;18.522;2024-02-28T11:39:22;100542.00;;;9.40
22322;BMP180;11328;53.928;18.522;2024-02-28T11:41:53;100550.00;;;9.40
22322;BMP180;11328;53.928;18.522;2024-02-28T11:44:20;100543.00;;;9.50
22322;BMP180;11328;53.928;18.522;2024-02-28T11:46:50;100549.00;;;9.70
22322;BMP180;11328;53.928;18.522;2024-02-28T11:49:17;100562.00;;;9.80
22322;BMP180;11328;53.928;18.522;2024-02-28T11:51:45;100566.00;;;9.90
22322;BMP180;11328;53.928;18.522;2024-02-28T11:54:13;100557.00;;;10.10
22322;BMP180;11328;53.928;18.522;2024-02-28T11:56:41;100558.00;;;10.00
22322;BMP180;11328;53.928;18.522;2024-02-28T11:59:11;100558.00;;;10.10
22322;BMP180;11328;53.928;18.522;2024-02-28T12:01:41;100556.00;;;10.10
22322;BMP180;11328;53.928;18.522;2024-02-28T12:04:11;100556.00;;;10.30
22322;BMP180;11328;53.928;18.522;2024-02-28T12:06:40;100557.00;;;10.40
22322;BMP180;11328;53.928;18.522;2024-02-28T12:09:11;100553.00;;;10.30
22322;BMP180;11328;53.928;18.522;2024-02-28T12:11:47;100552.00;;;10.30
22322;BMP180;11328;53.928;18.522;2024-02-28T12:14:14;100552.00;;;10.40
22322;BMP180;11328;53.928;18.522;2024-02-28T12:16:43;100560.00;;;10.40
22322;BMP180;11328;53.928;18.522;2024-02-28T12:19:12;100559.00;;;10.40
22322;BMP180;11328;53.928;18.522;2024-02-28T12:21:46;100559.00;;;10.30
22322;BMP180;11328;53.928;18.522;2024-02-28T12:24:13;100561.00;;;10.30
22322;BMP180;11328;53.928;18.522;2024-02-28T12:26:40;100561.00;;;10.30
22322;BMP180;11328;53.928;18.522;2024-02-28T12:29:08;100565.00;;;10.30
22322;BMP180;11328;53.928;18.522;2024-02-28T12:31:38;100568.00;;;10.30
22322;BMP180;11328;53.928;18.522;2024-02-28T12:34:05;100569.00;;;10.40
22322;BMP180;11328;53.928;18.522;2024-02-28T12:36:33;100582.00;;;10.50
22322;BMP180;11328;53.928;18.522;2024-02-28T12:39:01;100589.00;;;10.50
22322;BMP180;11328;53.928;18.522;2024-02-28T12:41:28;100579.00;;;10.60
22322;BMP180;11328;53.928;18.522;2024-02-28T12:43:55;100589.00;;;10.70
22322;BMP180;11328;53.928;18.522;2024-02-28T12:46:22;100588.00;;;10.60
22322;BMP180;11328;53.928;18.522;2024-02-28T12:48:49;100582.00;;;10.50
22322;BMP180;11328;53.928;18.522;2024-02-28T12:51:44;100595.00;;;10.50
22322;BMP180;11328;53.928;18.522;2024-02-28T12:54:12;100570.00;;;10.60
22322;BMP180;11328;53.928;18.522;2024-02-28T12:56:42;100578.00;;;10.50
22322;BMP180;11328;53.928;18.522;2024-02-28T12:59:13;100580.00;;;10.40
22322;BMP180;11328;53.928;18.522;2024-02-28T13:01:40;100582.00;;;10.30
22322;BMP180;11328;53.928;18.522;2024-02-28T13:04:07;100576.00;;;10.20
22322;BMP180;11328;53.928;18.522;2024-02-28T13:06:34;100574.00;;;10.20
22322;BMP180;11328;53.928;18.522;2024-02-28T13:09:01;100570.00;;;10.20
22322;BMP180;11328;53.928;18.522;2024-02-28T13:11:29;100562.00;;;10.20
22322;BMP180;11328;53.928;18.522;2024-02-28T13:13:56;100571.00;;;10.20
22322;BMP180;11328;53.928;18.522;2024-02-28T13:16:23;100572.00;;;10.20
22322;BMP180;11328;53.928;18.522;2024-02-28T13:18:50;100573.00;;;10.20
22322;BMP180;11328;53.928;18.522;2024-02-28T13:21:17;100574.00;;;10.10
22322;BMP180;11328;53.928;18.522;2024-02-28T13:23:44;100580.00;;;10.00
22322;BMP180;11328;53.928;18.522;2024-02-28T13:26:11;100587.00;;;10.00
22322;BMP180;11328;53.928;18.522;2024-02-28T13:28:45;100569.00;;;10.00
22322;BMP180;11328;53.928;18.522;2024-02-28T13:31:16;100590.00;;;10.00
22322;BMP180;11328;53.928;18.522;2024-02-28T13:33:43;100592.00;;;10.00
22322;BMP180;11328;53.928;18.522;2024-02-28T13:36:10;100595.00;;;10.10
22322;BMP180;11328;53.928;18.522;2024-02-28T13:38:37;100588.00;;;10.10
22322;BMP180;11328;53.928;18.522;2024-02-28T13:41:05;100580.00;;;10.10
22322;BMP180;11328;53.928;18.522;2024-02-28T13:43:32;100588.00;;;10.10
22322;BMP180;11328;53.928;18.522;2024-02-28T13:46:03;100595.00;;;10.20
22322;BMP180;11328;53.928;18.522;2024-02-28T13:48:31;100593.00;;;10.20
22322;BMP180;11328;53.928;18.522;2024-02-28T13:51:00;100590.00;;;10.20
22322;BMP180;11328;53.928;18.522;2024-02-28T13:53:31;100595.00;;;10.30
22322;BMP180;11328;53.928;18.522;2024-02-28T13:55:59;100593.00;;;10.20
22322;BMP180;11328;53.928;18.522;2024-02-28T13:58:26;100579.00;;;10.20
22322;BMP180;11328;53.928;18.522;2024-02-28T14:01:06;100590.00;;;10.20